sensor_id;sensor_type;location;lat;lon;timestamp;P1;durP1;ratioP1;P2;durP2;ratioP2
54177;SDS011;40085;53.004;6.770;2022-09-09T00:04:00;4.13;;;2.70;;
54177;SDS011;40085;53.004;6.770;2022-09-09T00:06:43;4.63;;;2.95;;
54177;SDS011;40085;53.004;6.770;2022-09-09T00:11:43;7.57;;;3.42;;
54177;SDS011;40085;53.004;6.770;2022-09-09T00:14:16;6.38;;;3.38;;
54177;SDS011;40085;53.004;6.770;2022-09-09T00:16:50;4.78;;;3.17;;
54177;SDS011;40085;53.004;6.770;2022-09-09T00:19:49;5.18;;;3.22;;
54177;SDS011;40085;53.004;6.770;2022-09-09T00:22:22;4.75;;;3.20;;
54177;SDS011;40085;53.004;6.770;2022-09-09T00:24:52;4.30;;;2.92;;
54177;SDS011;40085;53.004;6.770;2022-09-09T00:27:40;5.65;;;3.65;;
54177;SDS011;40085;53.004;6.770;2022-09-09T00:30:31;6.10;;;2.53;;
54177;SDS011;40085;53.004;6.770;2022-09-09T00:33:00;8.90;;;3.67;;
54177;SDS011;40085;53.004;6.770;2022-09-09T00:35:40;5.38;;;2.85;;
54177;SDS011;40085;53.004;6.770;2022-09-09T00:38:14;4.80;;;3.08;;
54177;SDS011;40085;53.004;6.770;2022-09-09T00:43:37;6.10;;;3.65;;
54177;SDS011;40085;53.004;6.770;2022-09-09T00:48:44;4.07;;;2.88;;
54177;SDS011;40085;53.004;6.770;2022-09-09T00:51:17;5.05;;;2.67;;
54177;SDS011;40085;53.004;6.770;2022-09-09T00:59:57;4.15;;;2.80;;
54177;SDS011;40085;53.004;6.770;2022-09-09T01:02:49;5.40;;;3.10;;
54177;SDS011;40085;53.004;6.770;2022-09-09T01:08:01;5.35;;;3.00;;
54177;SDS011;40085;53.004;6.770;2022-09-09T01:10:50;5.88;;;3.17;;
54177;SDS011;40085;53.004;6.770;2022-09-09T01:13:28;11.77;;;3.53;;
54177;SDS011;40085;53.004;6.770;2022-09-09T01:15:56;5.13;;;2.97;;
54177;SDS011;40085;53.004;6.770;2022-09-09T01:18:26;4.85;;;2.88;;
54177;SDS011;40085;53.004;6.770;2022-09-09T01:21:04;4.47;;;2.92;;
54177;SDS011;40085;53.004;6.770;2022-09-09T01:24:19;6.00;;;2.90;;
54177;SDS011;40085;53.004;6.770;2022-09-09T01:27:06;6.38;;;3.35;;
54177;SDS011;40085;53.004;6.770;2022-09-09T01:29:33;5.32;;;2.83;;
54177;SDS011;40085;53.004;6.770;2022-09-09T01:32:00;5.25;;;3.55;;
54177;SDS011;40085;53.004;6.770;2022-09-09T01:34:46;4.93;;;3.25;;
54177;SDS011;40085;53.004;6.770;2022-09-09T01:37:12;6.00;;;3.42;;
54177;SDS011;40085;53.004;6.770;2022-09-09T01:39:39;4.95;;;3.03;;
54177;SDS011;40085;53.004;6.770;2022-09-09T01:42:09;5.97;;;3.15;;
54177;SDS011;40085;53.004;6.770;2022-09-09T01:44:36;6.00;;;2.42;;
54177;SDS011;40085;53.004;6.770;2022-09-09T01:47:03;5.30;;;3.30;;
54177;SDS011;40085;53.004;6.770;2022-09-09T01:49:30;4.72;;;2.50;;
54177;SDS011;40085;53.004;6.770;2022-09-09T01:51:57;5.82;;;2.78;;
54177;SDS011;40085;53.004;6.770;2022-09-09T01:54:26;7.10;;;3.08;;
54177;SDS011;40085;53.004;6.770;2022-09-09T01:59:53;4.50;;;2.40;;
54177;SDS011;40085;53.004;6.770;2022-09-09T02:02:35;5.45;;;2.72;;
54177;SDS011;40085;53.004;6.770;2022-09-09T02:05:11;3.70;;;2.42;;
54177;SDS011;40085;53.004;6.770;2022-09-09T02:08:00;7.15;;;2.35;;
54177;SDS011;40085;53.004;6.770;2022-09-09T02:10:35;3.40;;;2.42;;
54177;SDS011;40085;53.004;6.770;2022-09-09T02:13:10;3.72;;;2.47;;
54177;SDS011;40085;53.004;6.770;2022-09-09T02:18:24;3.28;;;2.13;;
54177;SDS011;40085;53.004;6.770;2022-09-09T02:20:59;5.40;;;2.35;;
54177;SDS011;40085;53.004;6.770;2022-09-09T02:23:25;4.25;;;2.55;;
54177;SDS011;40085;53.004;6.770;2022-09-09T02:25:53;4.53;;;2.40;;
54177;SDS011;40085;53.004;6.770;2022-09-09T02:28:20;3.30;;;2.00;;
54177;SDS011;40085;53.004;6.770;2022-09-09T02:30:50;4.80;;;2.20;;
54177;SDS011;40085;53.004;6.770;2022-09-09T02:33:22;4.35;;;2.60;;
54177;SDS011;40085;53.004;6.770;2022-09-09T02:35:52;3.20;;;2.08;;
54177;SDS011;40085;53.004;6.770;2022-09-09T02:38:18;4.18;;;2.15;;
54177;SDS011;40085;53.004;6.770;2022-09-09T02:40:46;4.07;;;2.72;;
54177;SDS011;40085;53.004;6.770;2022-09-09T02:43:14;3.75;;;2.72;;
54177;SDS011;40085;53.004;6.770;2022-09-09T02:45:42;3.25;;;1.90;;
54177;SDS011;40085;53.004;6.770;2022-09-09T02:48:20;3.72;;;2.45;;
54177;SDS011;40085;53.004;6.770;2022-09-09T02:51:26;4.00;;;2.30;;
54177;SDS011;40085;53.004;6.770;2022-09-09T02:56:52;3.92;;;2.08;;
54177;SDS011;40085;53.004;6.770;2022-09-09T02:59:20;3.95;;;2.42;;
54177;SDS011;40085;53.004;6.770;2022-09-09T03:01:46;6.03;;;2.67;;
54177;SDS011;40085;53.004;6.770;2022-09-09T03:04:12;2.60;;;1.63;;
54177;SDS011;40085;53.004;6.770;2022-09-09T03:06:38;6.38;;;1.60;;
54177;SDS011;40085;53.004;6.770;2022-09-09T03:09:04;4.30;;;1.90;;
54177;SDS011;40085;53.004;6.770;2022-09-09T03:11:30;3.22;;;1.80;;
54177;SDS011;40085;53.004;6.770;2022-09-09T03:13:56;2.80;;;1.80;;
54177;SDS011;40085;53.004;6.770;2022-09-09T03:16:22;4.05;;;2.20;;
54177;SDS011;40085;53.004;6.770;2022-09-09T03:18:48;3.47;;;2.13;;
54177;SDS011;40085;53.004;6.770;2022-09-09T03:21:14;2.25;;;1.48;;
54177;SDS011;40085;53.004;6.770;2022-09-09T03:23:40;2.25;;;1.60;;
54177;SDS011;40085;53.004;6.770;2022-09-09T03:26:06;1.70;;;1.40;;
54177;SDS011;40085;53.004;6.770;2022-09-09T03:28:32;2.22;;;1.48;;
54177;SDS011;40085;53.004;6.770;2022-09-09T03:31:04;3.38;;;1.50;;
54177;SDS011;40085;53.004;6.770;2022-09-09T03:33:30;2.15;;;1.40;;
54177;SDS011;40085;53.004;6.770;2022-09-09T03:35:56;2.97;;;1.60;;
54177;SDS011;40085;53.004;6.770;2022-09-09T03:38:25;2.22;;;1.48;;
54177;SDS011;40085;53.004;6.770;2022-09-09T03:40:52;3.65;;;1.80;;
54177;SDS011;40085;53.004;6.770;2022-09-09T03:43:21;2.40;;;1.75;;
54177;SDS011;40085;53.004;6.770;2022-09-09T03:45:47;2.80;;;1.58;;
54177;SDS011;40085;53.004;6.770;2022-09-09T03:48:13;2.15;;;1.70;;
54177;SDS011;40085;53.004;6.770;2022-09-09T03:50:44;5.72;;;1.98;;
54177;SDS011;40085;53.004;6.770;2022-09-09T03:53:11;3.58;;;2.33;;
54177;SDS011;40085;53.004;6.770;2022-09-09T03:55:36;2.90;;;1.95;;
54177;SDS011;40085;53.004;6.770;2022-09-09T03:58:02;3.35;;;2.03;;
54177;SDS011;40085;53.004;6.770;2022-09-09T04:00:28;3.15;;;2.20;;
54177;SDS011;40085;53.004;6.770;2022-09-09T04:02:54;3.60;;;1.90;;
54177;SDS011;40085;53.004;6.770;2022-09-09T04:05:20;4.30;;;2.00;;
54177;SDS011;40085;53.004;6.770;2022-09-09T04:07:46;2.90;;;1.70;;
54177;SDS011;40085;53.004;6.770;2022-09-09T04:10:12;1.80;;;1.50;;
54177;SDS011;40085;53.004;6.770;2022-09-09T04:12:38;4.97;;;1.48;;
54177;SDS011;40085;53.004;6.770;2022-09-09T04:15:04;3.67;;;1.52;;
54177;SDS011;40085;53.004;6.770;2022-09-09T04:17:30;4.18;;;1.95;;
54177;SDS011;40085;53.004;6.770;2022-09-09T04:19:56;3.22;;;1.88;;
54177;SDS011;40085;53.004;6.770;2022-09-09T04:22:22;3.83;;;1.90;;
54177;SDS011;40085;53.004;6.770;2022-09-09T04:24:47;3.20;;;2.17;;
54177;SDS011;40085;53.004;6.770;2022-09-09T04:27:13;2.97;;;2.03;;
54177;SDS011;40085;53.004;6.770;2022-09-09T04:29:39;4.30;;;2.10;;
54177;SDS011;40085;53.004;6.770;2022-09-09T04:32:04;2.70;;;2.08;;
54177;SDS011;40085;53.004;6.770;2022-09-09T04:34:30;4.78;;;2.38;;
54177;SDS011;40085;53.004;6.770;2022-09-09T04:36:56;4.05;;;2.47;;
54177;SDS011;40085;53.004;6.770;2022-09-09T04:39:22;3.55;;;2.30;;
54177;SDS011;40085;53.004;6.770;2022-09-09T04:41:48;6.22;;;2.78;;
54177;SDS011;40085;53.004;6.770;2022-09-09T04:44:14;4.72;;;2.85;;
54177;SDS011;40085;53.004;6.770;2022-09-09T04:46:40;4.80;;;2.75;;
54177;SDS011;40085;53.004;6.770;2022-09-09T04:49:06;2.92;;;2.10;;
54177;SDS011;40085;53.004;6.770;2022-09-09T04:51:32;5.32;;;2.90;;
54177;SDS011;40085;53.004;6.770;2022-09-09T04:53:58;4.13;;;2.45;;
54177;SDS011;40085;53.004;6.770;2022-09-09T04:56:23;4.93;;;2.75;;
54177;SDS011;40085;53.004;6.770;2022-09-09T04:58:51;4.30;;;2.45;;
54177;SDS011;40085;53.004;6.770;2022-09-09T05:01:18;3.95;;;2.65;;
54177;SDS011;40085;53.004;6.770;2022-09-09T05:03:48;5.45;;;2.80;;
54177;SDS011;40085;53.004;6.770;2022-09-09T05:06:15;4.20;;;2.75;;
54177;SDS011;40085;53.004;6.770;2022-09-09T05:08:45;4.80;;;2.70;;
54177;SDS011;40085;53.004;6.770;2022-09-09T05:11:22;6.28;;;2.78;;
54177;SDS011;40085;53.004;6.770;2022-09-09T05:13:53;4.25;;;2.60;;
54177;SDS011;40085;53.004;6.770;2022-09-09T05:16:19;3.30;;;2.30;;
54177;SDS011;40085;53.004;6.770;2022-09-09T05:18:46;3.20;;;2.10;;
54177;SDS011;40085;53.004;6.770;2022-09-09T05:21:13;4.25;;;2.00;;
54177;SDS011;40085;53.004;6.770;2022-09-09T05:23:40;2.35;;;1.65;;
54177;SDS011;40085;53.004;6.770;2022-09-09T05:26:06;4.82;;;2.35;;
54177;SDS011;40085;53.004;6.770;2022-09-09T05:28:34;4.60;;;2.88;;
54177;SDS011;40085;53.004;6.770;2022-09-09T05:31:02;5.88;;;2.70;;
54177;SDS011;40085;53.004;6.770;2022-09-09T05:33:30;4.10;;;2.22;;
54177;SDS011;40085;53.004;6.770;2022-09-09T05:36:00;5.82;;;3.28;;
54177;SDS011;40085;53.004;6.770;2022-09-09T05:38:38;3.65;;;1.95;;
54177;SDS011;40085;53.004;6.770;2022-09-09T05:41:04;3.45;;;2.45;;
54177;SDS011;40085;53.004;6.770;2022-09-09T05:43:30;3.75;;;2.45;;
54177;SDS011;40085;53.004;6.770;2022-09-09T05:46:01;3.42;;;2.58;;
54177;SDS011;40085;53.004;6.770;2022-09-09T05:48:31;5.15;;;2.78;;
54177;SDS011;40085;53.004;6.770;2022-09-09T05:50:59;6.10;;;2.67;;
54177;SDS011;40085;53.004;6.770;2022-09-09T05:53:26;3.80;;;2.70;;
54177;SDS011;40085;53.004;6.770;2022-09-09T05:55:59;4.82;;;3.15;;
54177;SDS011;40085;53.004;6.770;2022-09-09T05:58:26;4.47;;;2.72;;
54177;SDS011;40085;53.004;6.770;2022-09-09T06:00:52;5.75;;;3.03;;
54177;SDS011;40085;53.004;6.770;2022-09-09T06:03:24;4.07;;;2.30;;
54177;SDS011;40085;53.004;6.770;2022-09-09T06:05:56;4.18;;;2.33;;
54177;SDS011;40085;53.004;6.770;2022-09-09T06:08:26;5.13;;;2.47;;
54177;SDS011;40085;53.004;6.770;2022-09-09T06:10:52;6.75;;;2.42;;
54177;SDS011;40085;53.004;6.770;2022-09-09T06:13:18;7.57;;;2.58;;
54177;SDS011;40085;53.004;6.770;2022-09-09T06:15:50;6.15;;;2.60;;
54177;SDS011;40085;53.004;6.770;2022-09-09T06:18:17;4.55;;;2.53;;
54177;SDS011;40085;53.004;6.770;2022-09-09T06:21:00;4.57;;;2.95;;
54177;SDS011;40085;53.004;6.770;2022-09-09T06:23:28;3.80;;;2.75;;
54177;SDS011;40085;53.004;6.770;2022-09-09T06:26:01;3.97;;;2.60;;
54177;SDS011;40085;53.004;6.770;2022-09-09T06:28:35;4.70;;;3.05;;
54177;SDS011;40085;53.004;6.770;2022-09-09T06:31:02;4.90;;;2.60;;
54177;SDS011;40085;53.004;6.770;2022-09-09T06:33:31;4.00;;;2.58;;
54177;SDS011;40085;53.004;6.770;2022-09-09T06:35:59;5.32;;;3.08;;
54177;SDS011;40085;53.004;6.770;2022-09-09T06:38:26;3.47;;;2.63;;
54177;SDS011;40085;53.004;6.770;2022-09-09T06:40:56;3.75;;;2.20;;
54177;SDS011;40085;53.004;6.770;2022-09-09T06:43:23;3.47;;;2.28;;
54177;SDS011;40085;53.004;6.770;2022-09-09T06:45:59;3.97;;;2.30;;
54177;SDS011;40085;53.004;6.770;2022-09-09T06:48:27;3.28;;;2.03;;
54177;SDS011;40085;53.004;6.770;2022-09-09T06:51:07;4.47;;;2.72;;
54177;SDS011;40085;53.004;6.770;2022-09-09T06:53:36;5.22;;;2.17;;
54177;SDS011;40085;53.004;6.770;2022-09-09T06:58:35;4.20;;;2.55;;
54177;SDS011;40085;53.004;6.770;2022-09-09T07:01:10;4.10;;;2.38;;
54177;SDS011;40085;53.004;6.770;2022-09-09T07:03:41;4.65;;;2.25;;
54177;SDS011;40085;53.004;6.770;2022-09-09T07:06:08;4.40;;;2.50;;
54177;SDS011;40085;53.004;6.770;2022-09-09T07:08:39;3.63;;;1.92;;
54177;SDS011;40085;53.004;6.770;2022-09-09T07:11:05;6.75;;;2.10;;
54177;SDS011;40085;53.004;6.770;2022-09-09T07:13:33;4.40;;;2.05;;
54177;SDS011;40085;53.004;6.770;2022-09-09T07:16:18;4.03;;;1.95;;
54177;SDS011;40085;53.004;6.770;2022-09-09T07:18:45;3.45;;;2.10;;
54177;SDS011;40085;53.004;6.770;2022-09-09T07:21:12;4.15;;;2.45;;
54177;SDS011;40085;53.004;6.770;2022-09-09T07:23:40;4.63;;;2.25;;
54177;SDS011;40085;53.004;6.770;2022-09-09T07:26:10;2.83;;;1.77;;
54177;SDS011;40085;53.004;6.770;2022-09-09T07:28:37;3.88;;;2.05;;
54177;SDS011;40085;53.004;6.770;2022-09-09T07:31:03;3.38;;;2.22;;
54177;SDS011;40085;53.004;6.770;2022-09-09T07:33:31;6.50;;;2.70;;
54177;SDS011;40085;53.004;6.770;2022-09-09T07:36:06;3.85;;;2.13;;
54177;SDS011;40085;53.004;6.770;2022-09-09T07:38:38;4.28;;;1.77;;
54177;SDS011;40085;53.004;6.770;2022-09-09T07:41:05;3.38;;;1.88;;
54177;SDS011;40085;53.004;6.770;2022-09-09T07:43:36;3.28;;;1.88;;
54177;SDS011;40085;53.004;6.770;2022-09-09T07:46:06;5.03;;;2.20;;
54177;SDS011;40085;53.004;6.770;2022-09-09T07:48:32;4.13;;;1.90;;
54177;SDS011;40085;53.004;6.770;2022-09-09T07:51:05;2.58;;;1.73;;
54177;SDS011;40085;53.004;6.770;2022-09-09T07:53:33;4.75;;;2.35;;
54177;SDS011;40085;53.004;6.770;2022-09-09T07:56:04;2.63;;;1.73;;
54177;SDS011;40085;53.004;6.770;2022-09-09T07:58:31;4.20;;;1.98;;
54177;SDS011;40085;53.004;6.770;2022-09-09T08:00:57;2.33;;;1.60;;
54177;SDS011;40085;53.004;6.770;2022-09-09T08:03:23;2.67;;;1.65;;
54177;SDS011;40085;53.004;6.770;2022-09-09T08:05:48;3.00;;;1.60;;
54177;SDS011;40085;53.004;6.770;2022-09-09T08:08:14;2.40;;;1.52;;
54177;SDS011;40085;53.004;6.770;2022-09-09T08:10:41;5.53;;;1.83;;
54177;SDS011;40085;53.004;6.770;2022-09-09T08:13:08;3.05;;;2.03;;
54177;SDS011;40085;53.004;6.770;2022-09-09T08:15:33;2.20;;;1.55;;
54177;SDS011;40085;53.004;6.770;2022-09-09T08:17:59;2.55;;;2.03;;
54177;SDS011;40085;53.004;6.770;2022-09-09T08:20:25;3.30;;;1.90;;
54177;SDS011;40085;53.004;6.770;2022-09-09T08:22:50;4.97;;;2.20;;
54177;SDS011;40085;53.004;6.770;2022-09-09T08:25:16;2.85;;;1.90;;
54177;SDS011;40085;53.004;6.770;2022-09-09T08:27:42;4.07;;;2.17;;
54177;SDS011;40085;53.004;6.770;2022-09-09T08:30:08;2.28;;;1.67;;
54177;SDS011;40085;53.004;6.770;2022-09-09T08:32:34;6.50;;;2.10;;
54177;SDS011;40085;53.004;6.770;2022-09-09T08:35:00;3.90;;;1.92;;
54177;SDS011;40085;53.004;6.770;2022-09-09T08:37:26;2.70;;;1.90;;
54177;SDS011;40085;53.004;6.770;2022-09-09T08:39:51;2.47;;;1.63;;
54177;SDS011;40085;53.004;6.770;2022-09-09T08:42:35;4.53;;;1.90;;
54177;SDS011;40085;53.004;6.770;2022-09-09T08:47:54;3.03;;;1.77;;
54177;SDS011;40085;53.004;6.770;2022-09-09T08:50:37;2.85;;;1.70;;
54177;SDS011;40085;53.004;6.770;2022-09-09T08:55:39;5.38;;;1.80;;
54177;SDS011;40085;53.004;6.770;2022-09-09T08:58:18;3.47;;;1.90;;
54177;SDS011;40085;53.004;6.770;2022-09-09T09:00:57;2.63;;;1.70;;
54177;SDS011;40085;53.004;6.770;2022-09-09T09:11:39;3.97;;;1.67;;
54177;SDS011;40085;53.004;6.770;2022-09-09T09:14:09;2.42;;;1.50;;
54177;SDS011;40085;53.004;6.770;2022-09-09T09:17:20;3.90;;;1.75;;
54177;SDS011;40085;53.004;6.770;2022-09-09T09:19:40;2.83;;;1.65;;
54177;SDS011;40085;53.004;6.770;2022-09-09T09:25:01;7.60;;;1.63;;
54177;SDS011;40085;53.004;6.770;2022-09-09T09:28:23;3.28;;;1.67;;
54177;SDS011;40085;53.004;6.770;2022-09-09T09:30:42;5.35;;;1.92;;
54177;SDS011;40085;53.004;6.770;2022-09-09T09:33:21;3.70;;;1.50;;
54177;SDS011;40085;53.004;6.770;2022-09-09T09:35:52;2.20;;;1.33;;
54177;SDS011;40085;53.004;6.770;2022-09-09T09:38:22;2.60;;;1.10;;
54177;SDS011;40085;53.004;6.770;2022-09-09T09:40:53;3.38;;;1.45;;
54177;SDS011;40085;53.004;6.770;2022-09-09T09:43:29;2.53;;;1.48;;
54177;SDS011;40085;53.004;6.770;2022-09-09T09:45:57;1.88;;;1.30;;
54177;SDS011;40085;53.004;6.770;2022-09-09T09:48:24;4.85;;;1.65;;
54177;SDS011;40085;53.004;6.770;2022-09-09T09:53:20;2.85;;;1.50;;
54177;SDS011;40085;53.004;6.770;2022-09-09T09:55:56;1.58;;;1.00;;
54177;SDS011;40085;53.004;6.770;2022-09-09T09:58:27;3.00;;;1.40;;
54177;SDS011;40085;53.004;6.770;2022-09-09T10:00:58;1.52;;;0.82;;
54177;SDS011;40085;53.004;6.770;2022-09-09T10:03:29;2.03;;;1.25;;
54177;SDS011;40085;53.004;6.770;2022-09-09T10:05:57;2.38;;;1.40;;
54177;SDS011;40085;53.004;6.770;2022-09-09T10:08:26;2.95;;;1.40;;
54177;SDS011;40085;53.004;6.770;2022-09-09T10:19:03;3.35;;;1.05;;
54177;SDS011;40085;53.004;6.770;2022-09-09T10:24:25;2.25;;;1.35;;
54177;SDS011;40085;53.004;6.770;2022-09-09T10:30:16;4.20;;;1.70;;
54177;SDS011;40085;53.004;6.770;2022-09-09T10:35:34;5.32;;;1.45;;
54177;SDS011;40085;53.004;6.770;2022-09-09T10:43:32;1.10;;;0.75;;
54177;SDS011;40085;53.004;6.770;2022-09-09T10:46:29;2.00;;;1.00;;
54177;SDS011;40085;53.004;6.770;2022-09-09T10:50:18;2.60;;;1.08;;
54177;SDS011;40085;53.004;6.770;2022-09-09T10:52:41;1.63;;;1.00;;
54177;SDS011;40085;53.004;6.770;2022-09-09T10:55:37;1.75;;;0.70;;
54177;SDS011;40085;53.004;6.770;2022-09-09T10:58:20;1.77;;;1.00;;
54177;SDS011;40085;53.004;6.770;2022-09-09T11:00:52;3.17;;;1.05;;
54177;SDS011;40085;53.004;6.770;2022-09-09T11:03:26;1.55;;;0.80;;
54177;SDS011;40085;53.004;6.770;2022-09-09T11:06:13;1.67;;;0.70;;
54177;SDS011;40085;53.004;6.770;2022-09-09T11:08:42;1.45;;;0.70;;
54177;SDS011;40085;53.004;6.770;2022-09-09T11:11:13;2.08;;;0.95;;
54177;SDS011;40085;53.004;6.770;2022-09-09T11:16:25;5.00;;;1.00;;
54177;SDS011;40085;53.004;6.770;2022-09-09T11:21:44;1.92;;;0.80;;
54177;SDS011;40085;53.004;6.770;2022-09-09T11:27:10;0.88;;;0.50;;
54177;SDS011;40085;53.004;6.770;2022-09-09T11:30:04;3.47;;;0.60;;
54177;SDS011;40085;53.004;6.770;2022-09-09T11:32:57;1.63;;;0.63;;
54177;SDS011;40085;53.004;6.770;2022-09-09T11:38:18;2.78;;;0.90;;
54177;SDS011;40085;53.004;6.770;2022-09-09T11:41:04;1.15;;;0.52;;
54177;SDS011;40085;53.004;6.770;2022-09-09T11:43:41;0.70;;;0.52;;
54177;SDS011;40085;53.004;6.770;2022-09-09T11:46:07;1.85;;;0.77;;
54177;SDS011;40085;53.004;6.770;2022-09-09T11:48:38;1.77;;;0.65;;
54177;SDS011;40085;53.004;6.770;2022-09-09T11:51:11;1.20;;;0.50;;
54177;SDS011;40085;53.004;6.770;2022-09-09T11:53:54;2.13;;;0.80;;
54177;SDS011;40085;53.004;6.770;2022-09-09T11:59:03;2.47;;;0.80;;
54177;SDS011;40085;53.004;6.770;2022-09-09T12:01:44;1.58;;;0.95;;
54177;SDS011;40085;53.004;6.770;2022-09-09T12:04:48;1.15;;;0.60;;
54177;SDS011;40085;53.004;6.770;2022-09-09T12:09:58;1.52;;;0.85;;
54177;SDS011;40085;53.004;6.770;2022-09-09T12:12:44;1.08;;;0.80;;
54177;SDS011;40085;53.004;6.770;2022-09-09T12:17:45;2.30;;;0.70;;
54177;SDS011;40085;53.004;6.770;2022-09-09T12:20:20;1.35;;;0.68;;
54177;SDS011;40085;53.004;6.770;2022-09-09T12:25:16;0.70;;;0.47;;
54177;SDS011;40085;53.004;6.770;2022-09-09T12:30:22;0.98;;;0.70;;
54177;SDS011;40085;53.004;6.770;2022-09-09T12:33:06;5.05;;;1.23;;
54177;SDS011;40085;53.004;6.770;2022-09-09T12:35:37;1.92;;;0.57;;
54177;SDS011;40085;53.004;6.770;2022-09-09T12:38:05;3.35;;;0.63;;
54177;SDS011;40085;53.004;6.770;2022-09-09T12:40:36;2.83;;;0.50;;
54177;SDS011;40085;53.004;6.770;2022-09-09T12:43:19;1.05;;;0.70;;
54177;SDS011;40085;53.004;6.770;2022-09-09T12:45:47;1.35;;;0.70;;
54177;SDS011;40085;53.004;6.770;2022-09-09T12:48:21;0.57;;;0.57;;
54177;SDS011;40085;53.004;6.770;2022-09-09T12:50:53;5.32;;;0.70;;
54177;SDS011;40085;53.004;6.770;2022-09-09T12:56:04;1.48;;;0.60;;
54177;SDS011;40085;53.004;6.770;2022-09-09T12:58:38;1.77;;;0.50;;
54177;SDS011;40085;53.004;6.770;2022-09-09T13:01:05;0.45;;;0.45;;
54177;SDS011;40085;53.004;6.770;2022-09-09T13:03:43;1.13;;;0.52;;
54177;SDS011;40085;53.004;6.770;2022-09-09T13:06:12;1.60;;;0.88;;
54177;SDS011;40085;53.004;6.770;2022-09-09T13:08:43;1.40;;;0.60;;
54177;SDS011;40085;53.004;6.770;2022-09-09T13:11:16;0.43;;;0.40;;
54177;SDS011;40085;53.004;6.770;2022-09-09T13:13:51;1.65;;;0.73;;
54177;SDS011;40085;53.004;6.770;2022-09-09T13:16:20;2.47;;;0.70;;
54177;SDS011;40085;53.004;6.770;2022-09-09T13:18:57;1.20;;;0.63;;
54177;SDS011;40085;53.004;6.770;2022-09-09T13:21:35;1.02;;;0.60;;
54177;SDS011;40085;53.004;6.770;2022-09-09T13:24:05;0.30;;;0.30;;
54177;SDS011;40085;53.004;6.770;2022-09-09T13:26:53;0.77;;;0.57;;
54177;SDS011;40085;53.004;6.770;2022-09-09T13:29:21;1.58;;;0.77;;
54177;SDS011;40085;53.004;6.770;2022-09-09T13:31:47;4.00;;;0.65;;
54177;SDS011;40085;53.004;6.770;2022-09-09T13:34:32;1.95;;;0.50;;
54177;SDS011;40085;53.004;6.770;2022-09-09T13:37:04;1.63;;;0.47;;
54177;SDS011;40085;53.004;6.770;2022-09-09T13:39:35;1.17;;;0.50;;
54177;SDS011;40085;53.004;6.770;2022-09-09T13:44:29;0.52;;;0.22;;
54177;SDS011;40085;53.004;6.770;2022-09-09T13:49:42;1.33;;;0.43;;
54177;SDS011;40085;53.004;6.770;2022-09-09T13:52:18;0.73;;;0.40;;
54177;SDS011;40085;53.004;6.770;2022-09-09T13:54:47;5.10;;;0.82;;
54177;SDS011;40085;53.004;6.770;2022-09-09T13:57:15;2.90;;;0.90;;
54177;SDS011;40085;53.004;6.770;2022-09-09T13:59:43;1.92;;;0.60;;
54177;SDS011;40085;53.004;6.770;2022-09-09T14:02:12;0.70;;;0.50;;
54177;SDS011;40085;53.004;6.770;2022-09-09T14:04:39;1.10;;;0.68;;
54177;SDS011;40085;53.004;6.770;2022-09-09T14:07:08;1.75;;;0.82;;
54177;SDS011;40085;53.004;6.770;2022-09-09T14:09:39;0.38;;;0.38;;
54177;SDS011;40085;53.004;6.770;2022-09-09T14:12:05;1.77;;;0.70;;
54177;SDS011;40085;53.004;6.770;2022-09-09T14:14:38;0.75;;;0.50;;
54177;SDS011;40085;53.004;6.770;2022-09-09T14:17:04;1.25;;;0.65;;
54177;SDS011;40085;53.004;6.770;2022-09-09T14:19:29;0.52;;;0.40;;
54177;SDS011;40085;53.004;6.770;2022-09-09T14:21:56;2.40;;;0.70;;
54177;SDS011;40085;53.004;6.770;2022-09-09T14:24:23;2.33;;;0.60;;
54177;SDS011;40085;53.004;6.770;2022-09-09T14:26:50;0.90;;;0.43;;
54177;SDS011;40085;53.004;6.770;2022-09-09T14:29:16;1.77;;;0.40;;
54177;SDS011;40085;53.004;6.770;2022-09-09T14:31:41;3.60;;;0.50;;
54177;SDS011;40085;53.004;6.770;2022-09-09T14:34:07;0.60;;;0.50;;
54177;SDS011;40085;53.004;6.770;2022-09-09T14:36:34;1.55;;;0.70;;
54177;SDS011;40085;53.004;6.770;2022-09-09T14:39:00;0.50;;;0.45;;
54177;SDS011;40085;53.004;6.770;2022-09-09T14:41:26;0.55;;;0.50;;
54177;SDS011;40085;53.004;6.770;2022-09-09T14:43:52;0.50;;;0.45;;
54177;SDS011;40085;53.004;6.770;2022-09-09T14:46:19;1.33;;;0.47;;
54177;SDS011;40085;53.004;6.770;2022-09-09T14:48:45;0.32;;;0.32;;
54177;SDS011;40085;53.004;6.770;2022-09-09T14:51:15;0.90;;;0.40;;
54177;SDS011;40085;53.004;6.770;2022-09-09T14:53:44;0.40;;;0.32;;
54177;SDS011;40085;53.004;6.770;2022-09-09T14:56:11;1.25;;;0.38;;
54177;SDS011;40085;53.004;6.770;2022-09-09T14:58:39;0.50;;;0.45;;
54177;SDS011;40085;53.004;6.770;2022-09-09T15:01:06;3.13;;;0.63;;
54177;SDS011;40085;53.004;6.770;2022-09-09T15:03:35;0.40;;;0.40;;
54177;SDS011;40085;53.004;6.770;2022-09-09T15:06:05;0.35;;;0.28;;
54177;SDS011;40085;53.004;6.770;2022-09-09T15:08:35;1.27;;;0.25;;
54177;SDS011;40085;53.004;6.770;2022-09-09T15:11:02;0.50;;;0.50;;
54177;SDS011;40085;53.004;6.770;2022-09-09T15:13:29;0.60;;;0.40;;
54177;SDS011;40085;53.004;6.770;2022-09-09T15:15:55;1.00;;;0.40;;
54177;SDS011;40085;53.004;6.770;2022-09-09T15:18:22;2.72;;;0.30;;
54177;SDS011;40085;53.004;6.770;2022-09-09T15:20:48;0.28;;;0.20;;
54177;SDS011;40085;53.004;6.770;2022-09-09T15:23:14;0.65;;;0.30;;
54177;SDS011;40085;53.004;6.770;2022-09-09T15:25:54;0.60;;;0.45;;
54177;SDS011;40085;53.004;6.770;2022-09-09T15:28:21;0.93;;;0.60;;
54177;SDS011;40085;53.004;6.770;2022-09-09T15:30:50;1.02;;;0.57;;
54177;SDS011;40085;53.004;6.770;2022-09-09T15:33:18;1.17;;;0.52;;
54177;SDS011;40085;53.004;6.770;2022-09-09T15:35:44;0.50;;;0.50;;
54177;SDS011;40085;53.004;6.770;2022-09-09T15:38:10;1.77;;;0.45;;
54177;SDS011;40085;53.004;6.770;2022-09-09T15:40:38;1.52;;;0.50;;
54177;SDS011;40085;53.004;6.770;2022-09-09T15:43:06;0.90;;;0.50;;
54177;SDS011;40085;53.004;6.770;2022-09-09T15:45:33;0.93;;;0.60;;
54177;SDS011;40085;53.004;6.770;2022-09-09T15:48:02;0.52;;;0.30;;
54177;SDS011;40085;53.004;6.770;2022-09-09T15:50:29;1.45;;;0.70;;
54177;SDS011;40085;53.004;6.770;2022-09-09T15:53:00;0.93;;;0.63;;
54177;SDS011;40085;53.004;6.770;2022-09-09T15:55:27;0.95;;;0.50;;
54177;SDS011;40085;53.004;6.770;2022-09-09T15:57:53;1.20;;;0.60;;
54177;SDS011;40085;53.004;6.770;2022-09-09T16:00:20;1.08;;;0.77;;
54177;SDS011;40085;53.004;6.770;2022-09-09T16:02:46;1.40;;;0.82;;
54177;SDS011;40085;53.004;6.770;2022-09-09T16:05:12;2.20;;;0.80;;
54177;SDS011;40085;53.004;6.770;2022-09-09T16:07:38;2.15;;;1.10;;
54177;SDS011;40085;53.004;6.770;2022-09-09T16:10:04;1.50;;;0.70;;
54177;SDS011;40085;53.004;6.770;2022-09-09T16:12:31;0.90;;;0.60;;
54177;SDS011;40085;53.004;6.770;2022-09-09T16:14:56;1.00;;;0.55;;
54177;SDS011;40085;53.004;6.770;2022-09-09T16:17:22;1.15;;;0.68;;
54177;SDS011;40085;53.004;6.770;2022-09-09T16:19:47;1.42;;;0.65;;
54177;SDS011;40085;53.004;6.770;2022-09-09T16:22:13;1.23;;;0.70;;
54177;SDS011;40085;53.004;6.770;2022-09-09T16:24:40;0.77;;;0.55;;
54177;SDS011;40085;53.004;6.770;2022-09-09T16:27:06;1.08;;;0.50;;
54177;SDS011;40085;53.004;6.770;2022-09-09T16:29:32;1.77;;;0.73;;
54177;SDS011;40085;53.004;6.770;2022-09-09T16:31:58;1.90;;;0.68;;
54177;SDS011;40085;53.004;6.770;2022-09-09T16:34:25;0.52;;;0.50;;
54177;SDS011;40085;53.004;6.770;2022-09-09T16:36:50;0.70;;;0.43;;
54177;SDS011;40085;53.004;6.770;2022-09-09T16:39:17;0.77;;;0.63;;
54177;SDS011;40085;53.004;6.770;2022-09-09T16:41:45;0.60;;;0.60;;
54177;SDS011;40085;53.004;6.770;2022-09-09T16:44:13;1.08;;;0.70;;
54177;SDS011;40085;53.004;6.770;2022-09-09T16:46:42;2.13;;;0.75;;
54177;SDS011;40085;53.004;6.770;2022-09-09T16:49:09;1.55;;;0.70;;
54177;SDS011;40085;53.004;6.770;2022-09-09T16:51:38;0.95;;;0.60;;
54177;SDS011;40085;53.004;6.770;2022-09-09T16:54:06;2.55;;;0.60;;